Latest Weather Observations for Gannett Cay

IDQ60801

Issued at 2:32 pm EST Monday 27 February 2017 (issued every 30 minutes, with the page automatically refreshed every 10 minutes)

About weather observations | Map of weather stations | Latest weather observations for QLD | Other Formats
Station Details ID: 200831 Name: GANNET CAY Lat: -21.98 Lon: 152.47 Height: 2.3 m
Data from the previous 72 hours. | See also: Recent months for locations in Queensland
Date/Time
EST
Temp
°C
App
Temp
°C
Dew
Point
°C
Rel
Hum
%
Delta-T
°C
Wind Press
QNH
hPa
Press
MSL
hPa
Rain since
9am
mm
Dir  Spd
km/h
Gust
km/h
Spd
kts
Gust
kts
27/02:00pm 28.0 - - - - ESE 24 30 13 16 1011.3 - -
27/01:30pm 28.1 - - - - ESE 24 30 13 16 1011.5 - -
27/01:29pm 28.1 - - - - ESE 24 - 13 - - 1011.6 -
27/01:00pm 28.1 - - - - ESE 26 30 14 16 1011.8 - -
27/12:30pm 28.0 - - - - ESE 22 28 12 15 1012.1 - -
27/12:29pm 28.0 - - - - ESE 22 - 12 - - 1012.2 -
27/12:00pm 28.0 - - - - ESE 22 28 12 15 1012.4 - -
27/11:30am 28.0 - - - - ESE 22 26 12 14 1012.7 - -
27/11:29am 27.9 - - - - E 22 - 12 - - 1012.8 -
27/11:00am 27.7 - - - - ESE 24 30 13 16 1013.0 - -
27/10:30am 27.9 - - - - ESE 26 30 14 16 1013.3 - -
27/10:29am 27.9 - - - - ESE 26 - 14 - - 1013.4 -
27/10:00am 27.8 - - - - ESE 28 32 15 17 1013.3 - -
27/09:30am 28.0 - - - - E 28 32 15 17 1013.2 - -
27/09:29am 27.9 - - - - E 28 - 15 - - 1013.3 -
27/09:00am 27.7 - - - - E 30 33 16 18 1013.0 - -
27/08:30am 27.6 - - - - E 26 30 14 16 1012.7 - -
27/08:29am 27.7 - - - - E 26 - 14 - - 1012.8 -
27/08:00am 27.7 - - - - E 26 30 14 16 1012.5 - -
27/07:30am 27.5 - - - - E 28 33 15 18 1012.2 - -
27/07:29am 27.6 - - - - E 28 - 15 - - 1012.2 -
27/07:00am 27.4 - - - - E 26 32 14 17 1012.1 - -
27/06:30am 27.1 - - - - ESE 26 30 14 16 1011.8 - -
27/06:29am 26.9 - - - - E 26 - 14 - - 1011.9 -
27/06:00am 26.6 - - - - E 28 35 15 19 1011.5 - -
27/05:30am 26.2 - - - - E 24 32 13 17 1011.4 - -
27/05:29am 26.2 - - - - E 26 - 14 - - 1011.5 -
27/05:00am 25.3 - - - - E 33 43 18 23 1011.3 - -
27/04:30am 26.4 - - - - E 30 35 16 19 1010.8 - -
27/04:29am 26.3 - - - - E 30 - 16 - - 1010.9 -
27/04:00am 26.7 - - - - ESE 33 39 18 21 1011.1 - -
27/03:30am 26.2 - - - - ESE 33 39 18 21 1010.9 - -
27/03:29am 26.4 - - - - ESE 33 - 18 - - 1011.0 -
27/03:00am 25.7 - - - - ESE 41 54 22 29 1011.2 - -
27/02:49am 25.8 - - - - ESE 50 56 27 30 1011.3 - -
27/02:30am 27.1 - - - - E 32 35 17 19 1011.3 - -
27/02:29am 27.0 - - - - E 32 - 17 - - 1011.4 -
27/02:00am 27.0 - - - - E 35 41 19 22 1011.4 - -
27/01:30am 26.9 - - - - ESE 33 41 18 22 1011.7 - -
27/01:29am 27.0 - - - - ESE 35 - 19 - - 1011.8 -
27/01:00am 26.8 - - - - ESE 35 43 19 23 1012.0 - -
27/12:30am 27.0 - - - - ESE 35 41 19 22 1011.9 - -
27/12:29am 27.0 - - - - ESE 33 - 18 - - 1012.0 -
27/12:00am 27.1 - - - - E 39 43 21 23 1011.8 - -
 
Date/Time
EST
Temp
°C
App
Temp
°C
Dew
Point
°C
Rel
Hum
%
Delta-T
°C
Wind Press
QNH
hPa
Press
MSL
hPa
Rain since
9am
mm
Dir  Spd
km/h
Gust
km/h
Spd
kts
Gust
kts
26/11:30pm 27.0 - - - - ESE 37 44 20 24 1011.8 - -
26/11:29pm 27.2 - - - - ESE 37 - 20 - - 1011.9 -
26/11:00pm 27.0 - - - - ESE 39 44 21 24 1011.8 - -
26/10:30pm 26.8 - - - - ESE 37 43 20 23 1012.3 - -
26/10:29pm 27.0 - - - - ESE 37 - 20 - - 1012.4 -
26/10:00pm 27.1 - - - - ESE 37 43 20 23 1012.5 - -
26/09:30pm 26.9 - - - - ESE 39 44 21 24 1012.5 - -
26/09:29pm 26.7 - - - - ESE 39 - 21 - - 1012.6 -
26/09:00pm 26.3 - - - - ESE 37 43 20 23 1012.5 - -
26/08:30pm 23.7 - - - - SE 32 61 17 33 1012.7 - -
26/08:29pm 23.7 - - - - SE 48 - 26 - - 1012.8 -
26/08:24pm 24.6 - - - - SE 56 59 30 32 1012.4 - -
26/08:22pm 27.3 - - - - ESE 32 50 17 27 1012.2 - -
26/08:00pm 27.1 - - - - SE 33 39 18 21 1011.8 - -
26/07:30pm 27.0 - - - - SE 32 37 17 20 1011.5 - -
26/07:29pm 27.1 - - - - SE 32 - 17 - - 1011.6 -
26/07:00pm 27.1 - - - - ESE 32 37 17 20 1011.1 - -
26/06:30pm 26.2 - - - - SE 35 44 19 24 1011.0 - -
26/06:29pm 26.5 - - - - SE 35 - 19 - - 1011.0 -
26/06:00pm 27.1 - - - - SE 33 39 18 21 1010.7 - -
26/05:30pm 26.7 - - - - ESE 30 33 16 18 1010.8 - -
26/05:29pm 26.7 - - - - ESE 30 - 16 - - 1010.9 -
26/05:00pm 25.5 - - - - ESE 43 46 23 25 1010.7 - -
26/04:30pm 26.1 - - - - SE 41 48 22 26 1010.5 - -
26/04:29pm 26.4 - - - - SE 41 - 22 - - 1010.6 -
26/04:00pm 27.5 - - - - SSE 35 44 19 24 1010.2 - -
26/03:30pm 27.8 - - - - SSE 33 37 18 20 1010.2 - -
26/03:29pm 27.8 - - - - SSE 33 - 18 - - 1010.3 -
26/03:00pm 28.4 - - - - SE 28 32 15 17 1010.0 - -
26/02:30pm 28.3 - - - - SSE 26 32 14 17 1010.2 - -
26/02:29pm 28.2 - - - - SSE 26 - 14 - - 1010.3 -
26/02:00pm 28.2 - - - - SE 28 32 15 17 1010.4 - -
26/01:30pm 28.1 - - - - ESE 26 32 14 17 1010.5 - -
26/01:29pm 28.2 - - - - ESE 26 - 14 - - 1010.7 -
26/01:00pm 28.0 - - - - SE 28 32 15 17 1010.7 - -
26/12:30pm 27.5 - - - - SE 28 33 15 18 1011.0 - -
26/12:29pm 27.5 - - - - SE 28 - 15 - - 1011.1 -
26/12:00pm 27.9 - - - - ESE 26 32 14 17 1011.4 - -
26/11:30am 27.6 - - - - SSE 28 32 15 17 1011.7 - -
26/11:29am 27.6 - - - - SSE 26 - 14 - - 1011.8 -
26/11:00am 27.6 - - - - ESE 24 28 13 15 1011.7 - -
26/10:30am 27.5 - - - - ESE 24 30 13 16 1011.8 - -
26/10:29am 27.4 - - - - SE 24 - 13 - - 1011.9 -
26/10:00am 26.9 - - - - ESE 22 26 12 14 1012.1 - -
26/09:30am 26.8 - - - - SSE 26 32 14 17 1012.1 - -
26/09:29am 26.9 - - - - SSE 24 - 13 - - 1012.3 -
26/09:00am 26.8 - - - - SE 26 30 14 16 1012.2 - -
26/08:30am 26.4 - - - - SE 33 39 18 21 1012.0 - -
26/08:29am 26.2 - - - - SE 33 - 18 - - 1012.2 -
26/08:00am 26.4 - - - - SE 37 43 20 23 1011.8 - -
26/07:30am 26.4 - - - - SSE 33 39 18 21 1011.7 - -
26/07:29am 26.3 - - - - SSE 32 - 17 - - 1011.7 -
26/07:00am 27.4 - - - - ESE 26 32 14 17 1011.3 - -
26/06:30am 27.2 - - - - ESE 24 30 13 16 1010.9 - -
26/06:29am 27.2 - - - - ESE 24 - 13 - - 1011.0 -
26/06:00am 27.0 - - - - ESE 28 33 15 18 1010.7 - -
26/05:30am 27.0 - - - - ESE 32 35 17 19 1010.3 - -
26/05:29am 27.0 - - - - ESE 32 - 17 - - 1010.4 -
26/05:00am 27.0 - - - - SE 32 35 17 19 1010.0 - -
26/04:30am 27.0 - - - - ESE 33 39 18 21 1009.7 - -
26/04:29am 27.0 - - - - ESE 33 - 18 - - 1009.8 -
26/04:00am 27.0 - - - - ESE 37 43 20 23 1009.6 - -
26/03:30am 27.2 - - - - ESE 37 44 20 24 1009.5 - -
26/03:29am 26.9 - - - - ESE 37 - 20 - - 1009.6 -
26/03:00am 27.0 - - - - SE 37 41 20 22 1009.6 - -
26/02:30am 27.1 - - - - SE 39 43 21 23 1009.7 - -
26/02:29am 27.0 - - - - SE 37 - 20 - - 1009.8 -
26/02:00am 27.3 - - - - ESE 33 41 18 22 1009.9 - -
26/01:30am 27.3 - - - - SE 33 39 18 21 1010.3 - -
26/01:29am 27.4 - - - - SE 33 - 18 - - 1010.4 -
26/01:00am 27.3 - - - - ESE 33 37 18 20 1010.7 - -
26/12:30am 27.0 - - - - ESE 35 41 19 22 1011.1 - -
26/12:29am 27.1 - - - - ESE 35 - 19 - - 1011.2 -
26/12:00am 27.4 - - - - ESE 32 37 17 20 1011.3 - -
 
Date/Time
EST
Temp
°C
App
Temp
°C
Dew
Point
°C
Rel
Hum
%
Delta-T
°C
Wind Press
QNH
hPa
Press
MSL
hPa
Rain since
9am
mm
Dir  Spd
km/h
Gust
km/h
Spd
kts
Gust
kts
25/11:30pm 27.2 - - - - ESE 30 35 16 19 1011.5 - -
25/11:29pm 26.9 - - - - ESE 30 - 16 - - 1011.7 -
25/11:00pm 27.1 - - - - ESE 39 44 21 24 1011.6 - -
25/10:30pm 27.1 - - - - ESE 35 41 19 22 1011.6 - -
25/10:29pm 26.9 - - - - ESE 35 - 19 - - 1011.8 -
25/10:00pm 26.7 - - - - ESE 37 43 20 23 1011.7 - -
25/09:30pm 26.9 - - - - SE 37 46 20 25 1011.8 - -
25/09:29pm 27.2 - - - - ESE 35 - 19 - - 1011.9 -
25/09:00pm 26.7 - - - - SE 37 43 20 23 1011.8 - -
25/08:30pm 26.7 - - - - SE 35 39 19 21 1011.8 - -
25/08:29pm 26.8 - - - - SE 35 - 19 - - 1011.8 -
25/08:00pm 26.5 - - - - SE 39 43 21 23 1011.7 - -
25/07:30pm 26.7 - - - - SE 35 41 19 22 1011.5 - -
25/07:29pm 26.7 - - - - SE 35 - 19 - - 1011.6 -
25/07:00pm 26.3 - - - - SSE 24 35 13 19 1011.4 - -
25/06:30pm 24.9 - - - - SE 28 35 15 19 1011.2 - -
25/06:29pm 25.0 - - - - SSE 30 - 16 - - 1011.3 -
25/06:00pm 25.1 - - - - SSE 43 50 23 27 1010.9 - -
25/05:30pm 26.8 - - - - SSE 33 37 18 20 1010.5 - -
25/05:29pm 26.4 - - - - SSE 35 - 19 - - 1010.6 -
25/05:00pm 23.5 - - - - SE 44 56 24 30 1010.5 - -
25/04:53pm 25.9 - - - - SSE 35 54 19 29 1010.3 - -
25/04:30pm 27.1 - - - - SE 28 33 15 18 1010.2 - -
25/04:29pm 27.2 - - - - SE 30 - 16 - - 1010.3 -
25/04:00pm 27.6 - - - - SE 35 43 19 23 1009.9 - -
25/03:30pm 27.8 - - - - SSE 35 41 19 22 1009.9 - -
25/03:29pm 27.7 - - - - SSE 35 - 19 - - 1010.0 -
25/03:00pm 27.8 - - - - SSE 32 37 17 20 1009.9 - -
25/02:30pm 28.0 - - - - SSE 32 37 17 20 1010.2 - -
25/02:29pm 27.8 - - - - SSE 32 - 17 - - 1010.3 -
25/02:00pm 27.6 - - - - SSE 30 35 16 19 1010.6 - -
25/01:30pm 27.6 - - - - SSE 32 37 17 20 1010.9 - -
25/01:29pm 27.7 - - - - SSE 33 - 18 - - 1011.0 -
25/01:00pm 27.3 - - - - SSE 32 35 17 19 1011.1 - -
25/12:30pm 27.2 - - - - SSE 33 37 18 20 1011.4 - -
25/12:29pm 27.1 - - - - SSE 33 - 18 - - 1011.5 -
25/12:00pm 27.8 - - - - SE 30 35 16 19 1011.8 - -
25/11:30am 27.8 - - - - ESE 28 33 15 18 1012.1 - -
25/11:29am 27.7 - - - - ESE 28 - 15 - - 1012.2 -
25/11:00am 27.6 - - - - ESE 28 33 15 18 1012.4 - -
25/10:30am 26.8 - - - - ESE 41 44 22 24 1012.6 - -
25/10:29am 27.1 - - - - ESE 41 - 22 - - 1012.7 -
25/10:26am 26.9 - - - - ESE 41 44 22 24 1012.6 - -
25/10:00am 27.5 - - - - SSE 32 39 17 21 1012.7 - -
25/09:30am 27.5 - - - - SSE 28 33 15 18 1012.6 - -
25/09:29am 27.4 - - - - SSE 28 - 15 - - 1012.7 -
25/09:00am 27.1 - - - - SE 30 35 16 19 1012.7 - -
25/08:30am 26.8 - - - - SE 35 43 19 23 1012.5 - -
25/08:29am 26.8 - - - - SE 35 - 19 - - 1012.6 -
25/08:00am 27.0 - - - - SE 30 35 16 19 1012.4 - -
25/07:30am 27.1 - - - - SE 30 35 16 19 1012.4 - -
25/07:29am 27.0 - - - - SE 30 - 16 - - 1012.5 -
25/07:00am 26.6 - - - - SE 32 37 17 20 1012.0 - -
25/06:34am 25.4 - - - - SE 32 46 17 25 1011.9 - -
25/06:30am 25.1 - - - - ESE 39 50 21 27 1011.9 - -
25/06:29am 24.7 - - - - ESE 41 - 22 - - 1012.0 -
25/06:24am 24.9 - - - - ESE 46 50 25 27 1011.8 - -
25/06:21am 26.7 - - - - SE 28 50 15 27 1011.7 - -
25/06:00am 26.9 - - - - SSE 26 30 14 16 1011.5 - -
25/05:30am 27.2 - - - - SE 26 30 14 16 1011.5 - -
25/05:29am 27.1 - - - - SE 26 - 14 - - 1011.6 -
25/05:00am 26.8 - - - - SE 22 30 12 16 1011.3 - -
25/04:30am 27.1 - - - - SE 24 28 13 15 1011.1 - -
25/04:29am 27.0 - - - - SE 24 - 13 - - 1011.3 -
25/04:00am 26.9 - - - - ESE 24 30 13 16 1011.1 - -
25/03:30am 26.9 - - - - SE 28 33 15 18 1011.0 - -
25/03:29am 26.7 - - - - SE 28 - 15 - - 1011.1 -
25/03:00am 27.1 - - - - ESE 28 33 15 18 1011.1 - -
25/02:30am 27.2 - - - - SE 28 35 15 19 1011.2 - -
25/02:29am 27.3 - - - - SE 28 - 15 - - 1011.3 -
25/02:00am 27.2 - - - - SE 30 35 16 19 1011.3 - -
25/01:30am 27.3 - - - - SE 30 35 16 19 1011.6 - -
25/01:29am 27.2 - - - - SE 30 - 16 - - 1011.7 -
25/01:00am 27.3 - - - - SE 32 37 17 20 1011.8 - -
25/12:30am 27.3 - - - - SE 33 37 18 20 1012.0 - -
25/12:29am 27.3 - - - - SE 33 - 18 - - 1012.2 -
25/12:00am 27.4 - - - - SE 33 41 18 22 1012.3 - -
 
Date/Time
EST
Temp
°C
App
Temp
°C
Dew
Point
°C
Rel
Hum
%
Delta-T
°C
Wind Press
QNH
hPa
Press
MSL
hPa
Rain since
9am
mm
Dir  Spd
km/h
Gust
km/h
Spd
kts
Gust
kts
24/11:30pm 27.3 - - - - SE 35 41 19 22 1012.7 - -
24/11:29pm 27.4 - - - - SE 35 - 19 - - 1012.8 -
24/11:00pm 27.7 - - - - ESE 35 39 19 21 1013.1 - -
24/10:30pm 27.6 - - - - ESE 33 39 18 21 1013.3 - -
24/10:29pm 27.4 - - - - ESE 32 - 17 - - 1013.4 -
24/10:00pm 27.5 - - - - ESE 33 39 18 21 1013.5 - -
24/09:30pm 27.5 - - - - ESE 35 43 19 23 1013.5 - -
24/09:29pm 27.5 - - - - ESE 35 - 19 - - 1013.6 -
24/09:00pm 27.5 - - - - SE 35 41 19 22 1013.5 - -
24/08:30pm 27.6 - - - - SE 37 44 20 24 1013.4 - -
24/08:29pm 27.6 - - - - SE 37 - 20 - - 1013.5 -
24/08:00pm 27.7 - - - - SE 35 41 19 22 1013.3 - -
24/07:30pm 27.7 - - - - SE 35 43 19 23 1013.1 - -
24/07:29pm 27.7 - - - - SE 35 - 19 - - 1013.2 -
24/07:00pm 27.9 - - - - SE 33 39 18 21 1013.0 - -
24/06:30pm 27.9 - - - - SE 33 39 18 21 1012.7 - -
24/06:29pm 27.8 - - - - SE 33 - 18 - - 1012.7 -
24/06:00pm 27.9 - - - - SE 32 35 17 19 1012.3 - -
24/05:30pm 28.0 - - - - SE 32 35 17 19 1012.2 - -
24/05:29pm 28.2 - - - - SE 32 - 17 - - 1012.3 -
24/05:00pm 28.2 - - - - SE 28 32 15 17 1012.1 - -
24/04:30pm 28.0 - - - - SE 32 35 17 19 1012.1 - -
24/04:29pm 28.0 - - - - SE 32 - 17 - - 1012.2 -
24/04:00pm 28.4 - - - - SE 28 32 15 17 1012.2 - -
24/03:30pm 28.3 - - - - SE 30 35 16 19 1012.2 - -
24/03:29pm 28.3 - - - - SE 30 - 16 - - 1012.3 -
24/03:00pm 28.2 - - - - SE 26 30 14 16 1012.3 - -

Other Formats:

Comma delimited format used in spreadsheet applications
http://www.bom.gov.au/fwo/IDQ60801/IDQ60801.94379.axf

JavaScript Object Notation format (JSON) in row-major order
http://www.bom.gov.au/fwo/IDQ60801/IDQ60801.94379.json